メインページ
METAR-TAF:

METAR-TAF

空港 :

グアム国際空港

ハガニア, グアム, アメリカ合衆国

緯度: 13-29N, 経度: 144-48E, 海抜: 91m

現時点の気象観測

当レポートは19分前の02:54(UTC)に作成
変向風 6kt
気温 31°C
湿度 75%
気圧 1010 hPa
視程: 16.1km
高度2200ftの千切れ雲あり
高度2700ftの曇り

METAR: PGUM 210254Z VRB06KT 10SM BKN022 OVC027 31/26 A2983 RMK AO2 RAE0158 SLP093 P0000 60000 T03060261 58012

時間: 13:13 (03:13 UTC)

予報

当レポートは3時間45分前の23:28(UTC)に作成
予報は21日の 00時(UTC)から 22日の 06時(UTC)まで有効
東/北東の風 5kt
視程: 10km
高度1500ftの雲はほとんどない
高度2500ftの千切れ雲あり
近辺でにわか雨
21日の 02時(UTC)から 21日の 06時(UTC)まで一時的に
視程: 6.4km
高度1500ftの雲は散在している
高度2500ftの曇り
にわか雨
21日の 0900時(UTC)から
変向風 4kt
視程: 10km
高度1800ftの雲はほとんどない
高度3000ftの雲は散在している
近辺でにわか雨

TAF: PGUM 202328Z 2100/2206 07005KT P6SM VCSH FEW015 BKN025 TEMPO 2102/2106 4SM SHRA SCT015 OVC025 FM210900 VRB04KT P6SM VCSH FEW018 SCT030

4,000以上の空港の気象観測と天気予報(METAR報とTAF報)

利用可能な観測所は地図上に黄色い丸と赤い丸で示す。

丸の上にカーソルを重ねると観測所名を参照できる。

次にクリックすると気象観測と天気予報を参照できる。

マップの切り替え:黒色「×」印の緑ボタンをクリックして拡大、「-」印の緑ボタンをクリックして縮小、緑色の三角印をクリックして隣りの地図に切り替え


METAR-TAF: